sensor_id;sensor_type;location;lat;lon;timestamp;pressure;altitude;pressure_sealevel;temperature;humidity
23473;BME280;11909;52.516;13.564;2022-12-29T00:01:45;100038.44;;;7.04;97.91
23473;BME280;11909;52.516;13.564;2022-12-29T00:04:14;100042.00;;;6.94;97.90
23473;BME280;11909;52.516;13.564;2022-12-29T00:06:42;100037.34;;;7.10;97.46
23473;BME280;11909;52.516;13.564;2022-12-29T00:09:12;100041.94;;;7.15;96.72
23473;BME280;11909;52.516;13.564;2022-12-29T00:11:40;100024.78;;;7.14;96.43
23473;BME280;11909;52.516;13.564;2022-12-29T00:14:08;100025.31;;;7.01;96.98
23473;BME280;11909;52.516;13.564;2022-12-29T00:16:53;100032.69;;;7.00;97.18
23473;BME280;11909;52.516;13.564;2022-12-29T00:19:21;100032.72;;;6.95;97.54
23473;BME280;11909;52.516;13.564;2022-12-29T00:22:08;100027.78;;;7.08;96.27
23473;BME280;11909;52.516;13.564;2022-12-29T00:24:55;100025.34;;;7.06;95.71
23473;BME280;11909;52.516;13.564;2022-12-29T00:27:40;100025.31;;;7.11;95.26
23473;BME280;11909;52.516;13.564;2022-12-29T00:30:33;100029.94;;;7.11;95.21
23473;BME280;11909;52.516;13.564;2022-12-29T00:33:21;100027.50;;;7.20;94.12
23473;BME280;11909;52.516;13.564;2022-12-29T00:36:09;100023.97;;;7.19;94.36
23473;BME280;11909;52.516;13.564;2022-12-29T00:38:42;100018.47;;;7.29;93.08
23473;BME280;11909;52.516;13.564;2022-12-29T00:41:30;100031.03;;;7.30;92.64
23473;BME280;11909;52.516;13.564;2022-12-29T00:44:15;100013.03;;;7.19;94.10
23473;BME280;11909;52.516;13.564;2022-12-29T00:46:43;100021.50;;;7.28;92.46
23473;BME280;11909;52.516;13.564;2022-12-29T00:49:13;100018.97;;;7.37;91.61
23473;BME280;11909;52.516;13.564;2022-12-29T00:52:01;100019.28;;;7.30;91.75
23473;BME280;11909;52.516;13.564;2022-12-29T00:54:32;100014.09;;;7.39;91.58
23473;BME280;11909;52.516;13.564;2022-12-29T00:57:02;100014.91;;;7.34;91.19
23473;BME280;11909;52.516;13.564;2022-12-29T00:59:30;100011.59;;;7.47;90.48
23473;BME280;11909;52.516;13.564;2022-12-29T01:01:59;100022.25;;;7.44;90.73
23473;BME280;11909;52.516;13.564;2022-12-29T01:04:27;100011.34;;;7.44;90.42
23473;BME280;11909;52.516;13.564;2022-12-29T01:06:55;99999.56;;;7.49;90.54
23473;BME280;11909;52.516;13.564;2022-12-29T01:09:23;100017.34;;;7.46;90.51
23473;BME280;11909;52.516;13.564;2022-12-29T01:12:09;100010.25;;;7.35;91.26
23473;BME280;11909;52.516;13.564;2022-12-29T01:14:38;100000.44;;;7.34;91.21
23473;BME280;11909;52.516;13.564;2022-12-29T01:17:06;99993.56;;;7.46;90.42
23473;BME280;11909;52.516;13.564;2022-12-29T01:19:34;100001.47;;;7.53;89.80
23473;BME280;11909;52.516;13.564;2022-12-29T01:22:02;100001.53;;;7.43;90.06
23473;BME280;11909;52.516;13.564;2022-12-29T01:24:30;99999.28;;;7.55;89.81
23473;BME280;11909;52.516;13.564;2022-12-29T01:26:57;100011.84;;;7.51;90.58
23473;BME280;11909;52.516;13.564;2022-12-29T01:29:26;100015.41;;;7.52;89.94
23473;BME280;11909;52.516;13.564;2022-12-29T01:31:54;100009.41;;;7.44;90.09
23473;BME280;11909;52.516;13.564;2022-12-29T01:34:21;100016.75;;;7.59;89.33
23473;BME280;11909;52.516;13.564;2022-12-29T01:36:49;100000.66;;;7.47;89.80
23473;BME280;11909;52.516;13.564;2022-12-29T01:39:17;100012.13;;;7.55;89.91
23473;BME280;11909;52.516;13.564;2022-12-29T01:41:44;100010.75;;;7.52;89.55
23473;BME280;11909;52.516;13.564;2022-12-29T01:44:52;100002.03;;;7.50;88.92
23473;BME280;11909;52.516;13.564;2022-12-29T01:47:33;100005.56;;;7.56;89.25
23473;BME280;11909;52.516;13.564;2022-12-29T01:50:06;99994.69;;;7.51;89.46
23473;BME280;11909;52.516;13.564;2022-12-29T01:52:40;100005.00;;;7.59;89.40
23473;BME280;11909;52.516;13.564;2022-12-29T01:55:10;99988.66;;;7.54;89.97
23473;BME280;11909;52.516;13.564;2022-12-29T01:57:43;99982.13;;;7.50;90.08
23473;BME280;11909;52.516;13.564;2022-12-29T02:00:15;99987.34;;;7.41;90.10
23473;BME280;11909;52.516;13.564;2022-12-29T02:02:45;99978.31;;;7.40;90.85
23473;BME280;11909;52.516;13.564;2022-12-29T02:05:17;99981.56;;;7.42;91.12
23473;BME280;11909;52.516;13.564;2022-12-29T02:07:48;99972.59;;;7.37;91.71
23473;BME280;11909;52.516;13.564;2022-12-29T02:10:19;99966.84;;;7.43;92.25
23473;BME280;11909;52.516;13.564;2022-12-29T02:12:48;99966.28;;;7.46;91.84
23473;BME280;11909;52.516;13.564;2022-12-29T02:15:17;99972.84;;;7.40;91.58
23473;BME280;11909;52.516;13.564;2022-12-29T02:18:05;99960.84;;;7.41;92.11
23473;BME280;11909;52.516;13.564;2022-12-29T02:21:11;99957.31;;;7.30;93.01
23473;BME280;11909;52.516;13.564;2022-12-29T02:24:05;99957.59;;;7.34;92.67
23473;BME280;11909;52.516;13.564;2022-12-29T02:26:53;99957.00;;;7.42;91.96
23473;BME280;11909;52.516;13.564;2022-12-29T02:29:42;99956.50;;;7.35;91.21
23473;BME280;11909;52.516;13.564;2022-12-29T02:32:28;99951.63;;;7.27;93.35
23473;BME280;11909;52.516;13.564;2022-12-29T02:35:06;99946.16;;;7.27;92.12
23473;BME280;11909;52.516;13.564;2022-12-29T02:37:42;99936.88;;;7.28;92.38
23473;BME280;11909;52.516;13.564;2022-12-29T02:40:17;99951.03;;;7.35;91.23
23473;BME280;11909;52.516;13.564;2022-12-29T02:42:50;99947.75;;;7.38;91.37
23473;BME280;11909;52.516;13.564;2022-12-29T02:45:22;99942.81;;;7.51;89.48
23473;BME280;11909;52.516;13.564;2022-12-29T02:47:58;99937.34;;;7.45;89.74
23473;BME280;11909;52.516;13.564;2022-12-29T02:50:34;99942.78;;;7.56;88.38
23473;BME280;11909;52.516;13.564;2022-12-29T02:53:05;99947.13;;;7.57;87.79
23473;BME280;11909;52.516;13.564;2022-12-29T02:55:34;99944.44;;;7.46;88.24
23473;BME280;11909;52.516;13.564;2022-12-29T02:58:17;99938.44;;;7.44;88.32
23473;BME280;11909;52.516;13.564;2022-12-29T03:00:55;99930.47;;;7.53;87.64
23473;BME280;11909;52.516;13.564;2022-12-29T03:03:38;99932.41;;;7.53;87.32
23473;BME280;11909;52.516;13.564;2022-12-29T03:06:22;99937.50;;;7.70;86.15
23473;BME280;11909;52.516;13.564;2022-12-29T03:09:00;99931.25;;;7.64;86.24
23473;BME280;11909;52.516;13.564;2022-12-29T03:11:48;99952.25;;;7.69;86.41
23473;BME280;11909;52.516;13.564;2022-12-29T03:14:44;99936.13;;;7.72;85.38
23473;BME280;11909;52.516;13.564;2022-12-29T03:17:40;99927.63;;;7.79;85.46
23473;BME280;11909;52.516;13.564;2022-12-29T03:20:17;99933.09;;;7.79;85.21
23473;BME280;11909;52.516;13.564;2022-12-29T03:22:47;99916.47;;;7.75;85.26
23473;BME280;11909;52.516;13.564;2022-12-29T03:25:21;99910.69;;;7.77;85.01
23473;BME280;11909;52.516;13.564;2022-12-29T03:27:52;99915.84;;;7.84;84.42
23473;BME280;11909;52.516;13.564;2022-12-29T03:30:21;99918.91;;;7.77;84.96
23473;BME280;11909;52.516;13.564;2022-12-29T03:32:51;99921.34;;;7.79;84.86
23473;BME280;11909;52.516;13.564;2022-12-29T03:35:25;99909.38;;;7.74;85.16
23473;BME280;11909;52.516;13.564;2022-12-29T03:37:58;99910.88;;;7.91;84.23
23473;BME280;11909;52.516;13.564;2022-12-29T03:40:28;99910.13;;;7.85;84.60
23473;BME280;11909;52.516;13.564;2022-12-29T03:42:58;99921.53;;;7.93;83.81
23473;BME280;11909;52.516;13.564;2022-12-29T03:45:26;99905.75;;;7.79;84.39
23473;BME280;11909;52.516;13.564;2022-12-29T03:47:54;99907.38;;;7.85;84.60
23473;BME280;11909;52.516;13.564;2022-12-29T03:50:23;99907.88;;;7.93;84.18
23473;BME280;11909;52.516;13.564;2022-12-29T03:52:51;99894.53;;;7.86;84.76
23473;BME280;11909;52.516;13.564;2022-12-29T03:55:18;99895.28;;;7.97;84.32
23473;BME280;11909;52.516;13.564;2022-12-29T03:57:46;99907.78;;;8.08;83.41
23473;BME280;11909;52.516;13.564;2022-12-29T04:00:14;99898.84;;;7.92;84.29
23473;BME280;11909;52.516;13.564;2022-12-29T04:02:43;99913.34;;;7.93;84.78
23473;BME280;11909;52.516;13.564;2022-12-29T04:05:11;99912.78;;;7.96;84.99
23473;BME280;11909;52.516;13.564;2022-12-29T04:07:41;99920.66;;;8.02;84.22
23473;BME280;11909;52.516;13.564;2022-12-29T04:10:09;99913.00;;;8.04;84.16
23473;BME280;11909;52.516;13.564;2022-12-29T04:12:36;99915.78;;;7.99;84.73
23473;BME280;11909;52.516;13.564;2022-12-29T04:15:05;99906.97;;;8.08;84.49
23473;BME280;11909;52.516;13.564;2022-12-29T04:17:33;99910.22;;;8.10;84.26
23473;BME280;11909;52.516;13.564;2022-12-29T04:20:01;99909.91;;;8.16;84.22
23473;BME280;11909;52.516;13.564;2022-12-29T04:22:44;99900.19;;;8.00;84.94
23473;BME280;11909;52.516;13.564;2022-12-29T04:25:12;99906.88;;;8.18;84.59
23473;BME280;11909;52.516;13.564;2022-12-29T04:27:40;99896.50;;;8.15;84.39
23473;BME280;11909;52.516;13.564;2022-12-29T04:30:09;99905.28;;;8.12;84.47
23473;BME280;11909;52.516;13.564;2022-12-29T04:32:37;99913.78;;;8.10;84.89
23473;BME280;11909;52.516;13.564;2022-12-29T04:35:05;99907.44;;;8.15;83.98
23473;BME280;11909;52.516;13.564;2022-12-29T04:37:33;99898.13;;;8.16;83.87
23473;BME280;11909;52.516;13.564;2022-12-29T04:40:02;99893.19;;;8.18;84.13
23473;BME280;11909;52.516;13.564;2022-12-29T04:42:30;99896.72;;;8.24;83.75
23473;BME280;11909;52.516;13.564;2022-12-29T04:44:57;99887.47;;;8.20;84.16
23473;BME280;11909;52.516;13.564;2022-12-29T04:47:25;99887.41;;;8.25;83.80
23473;BME280;11909;52.516;13.564;2022-12-29T04:49:53;99894.25;;;8.27;83.64
23473;BME280;11909;52.516;13.564;2022-12-29T04:52:20;99889.88;;;8.26;83.99
23473;BME280;11909;52.516;13.564;2022-12-29T04:54:48;99883.56;;;8.31;83.70
23473;BME280;11909;52.516;13.564;2022-12-29T04:57:17;99879.47;;;8.28;84.12
23473;BME280;11909;52.516;13.564;2022-12-29T04:59:45;99875.84;;;8.38;83.41
23473;BME280;11909;52.516;13.564;2022-12-29T05:02:13;99873.63;;;8.40;83.70
23473;BME280;11909;52.516;13.564;2022-12-29T05:04:41;99876.41;;;8.35;83.74
23473;BME280;11909;52.516;13.564;2022-12-29T05:07:08;99868.72;;;8.37;83.53
23473;BME280;11909;52.516;13.564;2022-12-29T05:09:36;99868.22;;;8.35;84.07
23473;BME280;11909;52.516;13.564;2022-12-29T05:12:04;99873.88;;;8.44;83.52
23473;BME280;11909;52.516;13.564;2022-12-29T05:14:34;99875.78;;;8.43;83.64
23473;BME280;11909;52.516;13.564;2022-12-29T05:17:02;99862.44;;;8.37;84.13
23473;BME280;11909;52.516;13.564;2022-12-29T05:19:29;99880.19;;;8.39;83.90
23473;BME280;11909;52.516;13.564;2022-12-29T05:21:57;99875.00;;;8.38;84.15
23473;BME280;11909;52.516;13.564;2022-12-29T05:24:25;99868.69;;;8.42;84.26
23473;BME280;11909;52.516;13.564;2022-12-29T05:26:53;99861.31;;;8.43;84.47
23473;BME280;11909;52.516;13.564;2022-12-29T05:29:20;99850.31;;;8.48;84.18
23473;BME280;11909;52.516;13.564;2022-12-29T05:31:49;99854.47;;;8.40;84.61
23473;BME280;11909;52.516;13.564;2022-12-29T05:34:17;99851.50;;;8.37;84.99
23473;BME280;11909;52.516;13.564;2022-12-29T05:36:45;99847.06;;;8.46;84.87
23473;BME280;11909;52.516;13.564;2022-12-29T05:39:12;99832.56;;;8.45;84.77
23473;BME280;11909;52.516;13.564;2022-12-29T05:41:40;99833.41;;;8.41;85.00
23473;BME280;11909;52.516;13.564;2022-12-29T05:44:09;99837.78;;;8.42;85.34
23473;BME280;11909;52.516;13.564;2022-12-29T05:46:37;99834.50;;;8.45;85.38
23473;BME280;11909;52.516;13.564;2022-12-29T05:49:06;99831.19;;;8.48;84.99
23473;BME280;11909;52.516;13.564;2022-12-29T05:51:34;99827.59;;;8.53;84.94
23473;BME280;11909;52.516;13.564;2022-12-29T05:54:02;99828.44;;;8.48;85.72
23473;BME280;11909;52.516;13.564;2022-12-29T05:56:29;99822.13;;;8.53;85.66
23473;BME280;11909;52.516;13.564;2022-12-29T05:58:57;99837.44;;;8.49;86.02
23473;BME280;11909;52.516;13.564;2022-12-29T06:01:25;99823.56;;;8.45;86.17
23473;BME280;11909;52.516;13.564;2022-12-29T06:03:53;99816.16;;;8.45;86.61
23473;BME280;11909;52.516;13.564;2022-12-29T06:06:22;99811.47;;;8.51;86.50
23473;BME280;11909;52.516;13.564;2022-12-29T06:08:50;99820.06;;;8.69;85.53
23473;BME280;11909;52.516;13.564;2022-12-29T06:11:17;99814.28;;;8.70;85.59
23473;BME280;11909;52.516;13.564;2022-12-29T06:13:45;99821.34;;;8.77;85.04
23473;BME280;11909;52.516;13.564;2022-12-29T06:16:13;99816.66;;;8.77;85.08
23473;BME280;11909;52.516;13.564;2022-12-29T06:18:40;99815.31;;;8.74;85.46
23473;BME280;11909;52.516;13.564;2022-12-29T06:21:08;99816.38;;;8.79;85.56
23473;BME280;11909;52.516;13.564;2022-12-29T06:23:37;99817.00;;;8.70;86.06
23473;BME280;11909;52.516;13.564;2022-12-29T06:26:05;99818.81;;;8.80;85.51
23473;BME280;11909;52.516;13.564;2022-12-29T06:28:32;99829.06;;;8.94;84.69
23473;BME280;11909;52.516;13.564;2022-12-29T06:31:00;99833.09;;;8.77;85.53
23473;BME280;11909;52.516;13.564;2022-12-29T06:33:29;99823.88;;;8.92;84.62
23473;BME280;11909;52.516;13.564;2022-12-29T06:35:57;99823.25;;;9.00;84.21
23473;BME280;11909;52.516;13.564;2022-12-29T06:38:24;99831.75;;;8.99;84.25
23473;BME280;11909;52.516;13.564;2022-12-29T06:40:53;99824.41;;;8.94;84.27
23473;BME280;11909;52.516;13.564;2022-12-29T06:43:21;99828.19;;;8.98;84.24
23473;BME280;11909;52.516;13.564;2022-12-29T06:45:48;99832.53;;;8.99;84.38
23473;BME280;11909;52.516;13.564;2022-12-29T06:48:16;99838.59;;;8.96;84.49
23473;BME280;11909;52.516;13.564;2022-12-29T06:50:44;99849.50;;;9.01;84.48
23473;BME280;11909;52.516;13.564;2022-12-29T06:53:11;99846.00;;;8.96;84.52
23473;BME280;11909;52.516;13.564;2022-12-29T06:55:41;99842.97;;;8.97;84.41
23473;BME280;11909;52.516;13.564;2022-12-29T06:58:10;99852.69;;;9.09;84.10
23473;BME280;11909;52.516;13.564;2022-12-29T07:00:38;99844.03;;;9.01;84.42
23473;BME280;11909;52.516;13.564;2022-12-29T07:03:05;99855.13;;;9.10;84.14
23473;BME280;11909;52.516;13.564;2022-12-29T07:05:33;99853.13;;;8.97;84.62
23473;BME280;11909;52.516;13.564;2022-12-29T07:08:01;99848.69;;;9.01;84.72
23473;BME280;11909;52.516;13.564;2022-12-29T07:10:29;99848.44;;;8.97;84.94
23473;BME280;11909;52.516;13.564;2022-12-29T07:12:56;99856.38;;;8.99;84.70
23473;BME280;11909;52.516;13.564;2022-12-29T07:15:25;99851.69;;;8.99;84.68
23473;BME280;11909;52.516;13.564;2022-12-29T07:17:53;99837.22;;;8.99;85.16
23473;BME280;11909;52.516;13.564;2022-12-29T07:20:21;99840.72;;;9.04;84.63
23473;BME280;11909;52.516;13.564;2022-12-29T07:22:52;99845.16;;;9.00;84.88
23473;BME280;11909;52.516;13.564;2022-12-29T07:25:20;99853.88;;;9.02;84.52
23473;BME280;11909;52.516;13.564;2022-12-29T07:27:48;99851.13;;;9.02;85.31
23473;BME280;11909;52.516;13.564;2022-12-29T07:30:16;99846.81;;;8.96;85.43
23473;BME280;11909;52.516;13.564;2022-12-29T07:32:45;99850.56;;;9.06;85.28
23473;BME280;11909;52.516;13.564;2022-12-29T07:35:13;99858.53;;;9.02;85.47
23473;BME280;11909;52.516;13.564;2022-12-29T07:37:42;99845.06;;;9.06;85.67
23473;BME280;11909;52.516;13.564;2022-12-29T07:40:10;99846.53;;;8.98;85.93
23473;BME280;11909;52.516;13.564;2022-12-29T07:42:39;99838.31;;;8.98;86.26
23473;BME280;11909;52.516;13.564;2022-12-29T07:45:08;99842.34;;;9.06;85.91
23473;BME280;11909;52.516;13.564;2022-12-29T07:47:36;99849.78;;;9.00;86.48
23473;BME280;11909;52.516;13.564;2022-12-29T07:50:06;99842.03;;;9.07;86.02
23473;BME280;11909;52.516;13.564;2022-12-29T07:52:34;99835.00;;;9.01;86.69
23473;BME280;11909;52.516;13.564;2022-12-29T07:55:01;99837.16;;;9.04;86.56
23473;BME280;11909;52.516;13.564;2022-12-29T07:57:29;99846.72;;;9.07;86.56
23473;BME280;11909;52.516;13.564;2022-12-29T07:59:57;99821.59;;;8.99;87.05
23473;BME280;11909;52.516;13.564;2022-12-29T08:02:25;99831.16;;;9.02;87.02
23473;BME280;11909;52.516;13.564;2022-12-29T08:04:53;99834.59;;;9.13;86.14
23473;BME280;11909;52.516;13.564;2022-12-29T08:07:22;99842.97;;;9.22;85.48
23473;BME280;11909;52.516;13.564;2022-12-29T08:09:50;99829.50;;;9.25;85.28
23473;BME280;11909;52.516;13.564;2022-12-29T08:12:18;99845.28;;;9.33;84.82
23473;BME280;11909;52.516;13.564;2022-12-29T08:14:45;99839.28;;;9.31;84.78
23473;BME280;11909;52.516;13.564;2022-12-29T08:17:13;99834.25;;;9.39;84.51
23473;BME280;11909;52.516;13.564;2022-12-29T08:19:41;99838.41;;;9.36;84.82
23473;BME280;11909;52.516;13.564;2022-12-29T08:22:09;99844.91;;;9.40;84.56
23473;BME280;11909;52.516;13.564;2022-12-29T08:24:39;99830.03;;;9.46;84.45
23473;BME280;11909;52.516;13.564;2022-12-29T08:27:06;99828.41;;;9.45;84.34
23473;BME280;11909;52.516;13.564;2022-12-29T08:29:45;99837.97;;;9.48;83.99
23473;BME280;11909;52.516;13.564;2022-12-29T08:32:13;99843.66;;;9.52;84.16
23473;BME280;11909;52.516;13.564;2022-12-29T08:34:41;99852.53;;;9.43;84.53
23473;BME280;11909;52.516;13.564;2022-12-29T08:37:08;99843.13;;;9.50;84.01
23473;BME280;11909;52.516;13.564;2022-12-29T08:39:36;99835.22;;;9.48;84.21
23473;BME280;11909;52.516;13.564;2022-12-29T08:42:05;99844.25;;;9.49;84.62
23473;BME280;11909;52.516;13.564;2022-12-29T08:44:33;99834.03;;;9.54;84.61
23473;BME280;11909;52.516;13.564;2022-12-29T08:47:01;99837.06;;;9.53;84.21
23473;BME280;11909;52.516;13.564;2022-12-29T08:49:28;99824.63;;;9.60;83.52
23473;BME280;11909;52.516;13.564;2022-12-29T08:51:56;99848.16;;;9.61;83.80
23473;BME280;11909;52.516;13.564;2022-12-29T08:54:24;99849.50;;;9.64;83.31
23473;BME280;11909;52.516;13.564;2022-12-29T08:56:51;99846.31;;;9.57;84.00
23473;BME280;11909;52.516;13.564;2022-12-29T08:59:21;99855.34;;;9.57;84.02
23473;BME280;11909;52.516;13.564;2022-12-29T09:01:49;99849.19;;;9.66;83.63
23473;BME280;11909;52.516;13.564;2022-12-29T09:04:17;99856.91;;;9.64;83.93
23473;BME280;11909;52.516;13.564;2022-12-29T09:06:45;99846.47;;;9.66;83.60
23473;BME280;11909;52.516;13.564;2022-12-29T09:09:13;99849.72;;;9.68;83.55
23473;BME280;11909;52.516;13.564;2022-12-29T09:11:41;99848.38;;;9.84;82.96
23473;BME280;11909;52.516;13.564;2022-12-29T09:14:09;99846.47;;;9.85;83.00
23473;BME280;11909;52.516;13.564;2022-12-29T09:16:40;99842.53;;;9.91;82.38
23473;BME280;11909;52.516;13.564;2022-12-29T09:19:25;99837.28;;;9.95;82.38
23473;BME280;11909;52.516;13.564;2022-12-29T09:21:52;99839.56;;;9.87;82.75
23473;BME280;11909;52.516;13.564;2022-12-29T09:24:20;99853.22;;;9.93;82.84
23473;BME280;11909;52.516;13.564;2022-12-29T09:26:48;99844.59;;;9.99;82.42
23473;BME280;11909;52.516;13.564;2022-12-29T09:29:15;99843.97;;;10.02;82.19
23473;BME280;11909;52.516;13.564;2022-12-29T09:31:44;99841.88;;;10.13;81.67
23473;BME280;11909;52.516;13.564;2022-12-29T09:34:12;99847.31;;;10.18;81.38
23473;BME280;11909;52.516;13.564;2022-12-29T09:36:40;99837.88;;;10.25;81.43
23473;BME280;11909;52.516;13.564;2022-12-29T09:39:07;99839.50;;;10.26;81.04
23473;BME280;11909;52.516;13.564;2022-12-29T09:41:39;99840.75;;;10.33;80.86
23473;BME280;11909;52.516;13.564;2022-12-29T09:44:15;99837.69;;;10.35;80.64
23473;BME280;11909;52.516;13.564;2022-12-29T09:46:48;99835.16;;;10.39;80.56
23473;BME280;11909;52.516;13.564;2022-12-29T09:49:24;99816.06;;;10.33;81.00
23473;BME280;11909;52.516;13.564;2022-12-29T09:51:59;99827.53;;;10.36;80.86
23473;BME280;11909;52.516;13.564;2022-12-29T09:54:38;99821.50;;;10.53;80.01
23473;BME280;11909;52.516;13.564;2022-12-29T09:57:15;99822.22;;;10.58;79.79
23473;BME280;11909;52.516;13.564;2022-12-29T09:59:45;99820.59;;;10.57;80.18
23473;BME280;11909;52.516;13.564;2022-12-29T10:02:29;99824.25;;;10.67;79.40
23473;BME280;11909;52.516;13.564;2022-12-29T10:04:58;99814.00;;;10.72;79.22
23473;BME280;11909;52.516;13.564;2022-12-29T10:07:33;99820.72;;;10.80;79.04
23473;BME280;11909;52.516;13.564;2022-12-29T10:10:26;99825.38;;;10.80;79.07
23473;BME280;11909;52.516;13.564;2022-12-29T10:13:08;99816.53;;;10.83;78.68
23473;BME280;11909;52.516;13.564;2022-12-29T10:15:48;99824.25;;;10.81;78.84
23473;BME280;11909;52.516;13.564;2022-12-29T10:21:32;99811.38;;;10.81;79.30
23473;BME280;11909;52.516;13.564;2022-12-29T10:24:06;99805.66;;;10.78;79.83
23473;BME280;11909;52.516;13.564;2022-12-29T10:26:38;99815.34;;;10.75;79.96
23473;BME280;11909;52.516;13.564;2022-12-29T10:29:13;99810.44;;;10.72;79.73
23473;BME280;11909;52.516;13.564;2022-12-29T10:31:44;99805.66;;;10.78;79.70
23473;BME280;11909;52.516;13.564;2022-12-29T10:34:18;99817.47;;;10.78;79.84
23473;BME280;11909;52.516;13.564;2022-12-29T10:36:49;99806.38;;;10.83;79.51
23473;BME280;11909;52.516;13.564;2022-12-29T10:39:21;99824.19;;;10.86;79.64
23473;BME280;11909;52.516;13.564;2022-12-29T10:41:54;99815.34;;;10.89;79.15
23473;BME280;11909;52.516;13.564;2022-12-29T10:44:27;99811.06;;;10.97;78.72
23473;BME280;11909;52.516;13.564;2022-12-29T10:46:59;99817.34;;;11.11;77.95
23473;BME280;11909;52.516;13.564;2022-12-29T10:49:29;99818.34;;;11.15;77.87
23473;BME280;11909;52.516;13.564;2022-12-29T10:51:59;99800.66;;;11.22;77.78
23473;BME280;11909;52.516;13.564;2022-12-29T10:54:32;99806.03;;;11.27;77.19
23473;BME280;11909;52.516;13.564;2022-12-29T10:57:08;99799.41;;;11.28;77.63
23473;BME280;11909;52.516;13.564;2022-12-29T10:59:37;99826.88;;;11.28;77.65
23473;BME280;11909;52.516;13.564;2022-12-29T11:02:28;99807.75;;;11.37;76.75
23473;BME280;11909;52.516;13.564;2022-12-29T11:05:02;99802.75;;;11.39;77.09
23473;BME280;11909;52.516;13.564;2022-12-29T11:07:35;99799.50;;;11.37;76.57
23473;BME280;11909;52.516;13.564;2022-12-29T11:10:18;99794.00;;;11.37;76.79
23473;BME280;11909;52.516;13.564;2022-12-29T11:12:55;99791.88;;;11.33;77.44
23473;BME280;11909;52.516;13.564;2022-12-29T11:15:23;99795.63;;;11.38;76.65
23473;BME280;11909;52.516;13.564;2022-12-29T11:17:53;99789.31;;;11.37;76.95
23473;BME280;11909;52.516;13.564;2022-12-29T11:20:32;99812.50;;;11.45;76.31
23473;BME280;11909;52.516;13.564;2022-12-29T11:23:04;99804.75;;;11.47;76.46
23473;BME280;11909;52.516;13.564;2022-12-29T11:25:32;99806.38;;;11.48;76.19
23473;BME280;11909;52.516;13.564;2022-12-29T11:28:01;99804.75;;;11.47;76.38
23473;BME280;11909;52.516;13.564;2022-12-29T11:30:31;99807.00;;;11.45;76.76
23473;BME280;11909;52.516;13.564;2022-12-29T11:33:02;99809.75;;;11.45;76.99
23473;BME280;11909;52.516;13.564;2022-12-29T11:35:33;99803.56;;;11.39;77.32
23473;BME280;11909;52.516;13.564;2022-12-29T11:38:03;99806.78;;;11.41;77.40
23473;BME280;11909;52.516;13.564;2022-12-29T11:40:38;99820.16;;;11.34;78.24
23473;BME280;11909;52.516;13.564;2022-12-29T11:43:06;99819.53;;;11.37;78.96
23473;BME280;11909;52.516;13.564;2022-12-29T11:45:45;99812.94;;;11.24;79.70
23473;BME280;11909;52.516;13.564;2022-12-29T11:48:17;99820.69;;;11.22;81.29
23473;BME280;11909;52.516;13.564;2022-12-29T11:50:50;99816.94;;;11.18;83.20
23473;BME280;11909;52.516;13.564;2022-12-29T11:53:24;99812.06;;;11.01;83.77
23473;BME280;11909;52.516;13.564;2022-12-29T11:55:55;99814.09;;;10.95;83.58
23473;BME280;11909;52.516;13.564;2022-12-29T11:58:28;99817.25;;;10.88;84.47
23473;BME280;11909;52.516;13.564;2022-12-29T12:01:01;99793.16;;;10.85;84.80
23473;BME280;11909;52.516;13.564;2022-12-29T12:03:32;99807.78;;;10.81;84.29
23473;BME280;11909;52.516;13.564;2022-12-29T12:06:03;99821.50;;;10.81;83.41
23473;BME280;11909;52.516;13.564;2022-12-29T12:08:37;99829.56;;;10.77;82.82
23473;BME280;11909;52.516;13.564;2022-12-29T12:11:11;99837.47;;;10.79;84.12
23473;BME280;11909;52.516;13.564;2022-12-29T12:13:43;99831.38;;;10.68;85.83
23473;BME280;11909;52.516;13.564;2022-12-29T12:16:16;99833.91;;;10.50;88.86
23473;BME280;11909;52.516;13.564;2022-12-29T12:18:47;99813.31;;;10.33;92.08
23473;BME280;11909;52.516;13.564;2022-12-29T12:21:23;99803.22;;;10.15;95.17
23473;BME280;11909;52.516;13.564;2022-12-29T12:24:11;99792.50;;;9.99;96.74
23473;BME280;11909;52.516;13.564;2022-12-29T12:26:54;99784.56;;;9.84;97.64
23473;BME280;11909;52.516;13.564;2022-12-29T12:29:28;99797.34;;;9.88;99.05
23473;BME280;11909;52.516;13.564;2022-12-29T12:32:05;99787.66;;;9.77;98.28
23473;BME280;11909;52.516;13.564;2022-12-29T12:34:38;99800.84;;;9.75;97.84
23473;BME280;11909;52.516;13.564;2022-12-29T12:37:23;99785.31;;;9.70;97.94
23473;BME280;11909;52.516;13.564;2022-12-29T12:40:11;99776.47;;;9.73;98.25
23473;BME280;11909;52.516;13.564;2022-12-29T12:42:51;99781.75;;;9.70;98.35
23473;BME280;11909;52.516;13.564;2022-12-29T12:48:38;99784.38;;;9.61;98.53
23473;BME280;11909;52.516;13.564;2022-12-29T12:51:16;99783.44;;;9.66;98.26
23473;BME280;11909;52.516;13.564;2022-12-29T12:53:58;99774.38;;;9.51;98.37
23473;BME280;11909;52.516;13.564;2022-12-29T12:56:46;99775.25;;;9.46;97.89
23473;BME280;11909;52.516;13.564;2022-12-29T12:59:28;99790.72;;;9.56;97.11
23473;BME280;11909;52.516;13.564;2022-12-29T13:02:02;99780.72;;;9.46;97.51
23473;BME280;11909;52.516;13.564;2022-12-29T13:05:00;99788.44;;;9.44;97.46
23473;BME280;11909;52.516;13.564;2022-12-29T13:07:40;99780.06;;;9.36;98.33
23473;BME280;11909;52.516;13.564;2022-12-29T13:10:21;99771.94;;;9.30;100.00
23473;BME280;11909;52.516;13.564;2022-12-29T13:13:05;99769.19;;;9.30;100.00
23473;BME280;11909;52.516;13.564;2022-12-29T13:15:45;99782.44;;;9.42;99.49
23473;BME280;11909;52.516;13.564;2022-12-29T13:18:22;99779.19;;;9.40;99.89
23473;BME280;11909;52.516;13.564;2022-12-29T13:20:57;99796.72;;;9.39;99.25
23473;BME280;11909;52.516;13.564;2022-12-29T13:23:32;99797.09;;;9.32;99.75
23473;BME280;11909;52.516;13.564;2022-12-29T13:26:08;99786.88;;;9.38;100.00
23473;BME280;11909;52.516;13.564;2022-12-29T13:28:49;99784.66;;;9.40;99.57
23473;BME280;11909;52.516;13.564;2022-12-29T13:31:20;99790.56;;;9.47;99.36